sensor_id;sensor_type;location;lat;lon;timestamp;temperature;humidity
13436;DHT22;6790;49.520;8.504;2023-08-07T00:00:44;13.00;99.90
13436;DHT22;6790;49.520;8.504;2023-08-07T00:03:09;13.00;99.90
13436;DHT22;6790;49.520;8.504;2023-08-07T00:05:36;13.00;99.90
13436;DHT22;6790;49.520;8.504;2023-08-07T00:08:02;13.00;99.90
13436;DHT22;6790;49.520;8.504;2023-08-07T00:10:28;13.00;99.90
13436;DHT22;6790;49.520;8.504;2023-08-07T00:12:54;13.00;99.90
13436;DHT22;6790;49.520;8.504;2023-08-07T00:15:19;13.00;99.90
13436;DHT22;6790;49.520;8.504;2023-08-07T00:17:45;13.00;99.90
13436;DHT22;6790;49.520;8.504;2023-08-07T00:20:11;13.00;99.90
13436;DHT22;6790;49.520;8.504;2023-08-07T00:22:37;13.10;99.90
13436;DHT22;6790;49.520;8.504;2023-08-07T00:25:02;13.00;99.90
13436;DHT22;6790;49.520;8.504;2023-08-07T00:27:28;13.00;99.90
13436;DHT22;6790;49.520;8.504;2023-08-07T00:29:54;13.10;99.90
13436;DHT22;6790;49.520;8.504;2023-08-07T00:32:20;13.10;99.90
13436;DHT22;6790;49.520;8.504;2023-08-07T00:34:46;13.10;99.90
13436;DHT22;6790;49.520;8.504;2023-08-07T00:37:11;13.10;99.90
13436;DHT22;6790;49.520;8.504;2023-08-07T00:39:37;13.10;99.90
13436;DHT22;6790;49.520;8.504;2023-08-07T00:42:03;13.10;99.90
13436;DHT22;6790;49.520;8.504;2023-08-07T00:44:28;13.10;99.90
13436;DHT22;6790;49.520;8.504;2023-08-07T00:46:54;13.10;99.90
13436;DHT22;6790;49.520;8.504;2023-08-07T00:49:20;13.10;99.90
13436;DHT22;6790;49.520;8.504;2023-08-07T00:51:46;13.10;99.90
13436;DHT22;6790;49.520;8.504;2023-08-07T00:54:15;13.10;99.90
13436;DHT22;6790;49.520;8.504;2023-08-07T00:56:43;13.10;99.90
13436;DHT22;6790;49.520;8.504;2023-08-07T00:59:09;13.10;99.90
13436;DHT22;6790;49.520;8.504;2023-08-07T01:01:35;13.10;99.90
13436;DHT22;6790;49.520;8.504;2023-08-07T01:04:01;13.10;99.90
13436;DHT22;6790;49.520;8.504;2023-08-07T01:06:27;13.10;99.90
13436;DHT22;6790;49.520;8.504;2023-08-07T01:08:53;13.10;99.90
13436;DHT22;6790;49.520;8.504;2023-08-07T01:11:36;13.10;99.90
13436;DHT22;6790;49.520;8.504;2023-08-07T01:14:22;13.10;99.90
13436;DHT22;6790;49.520;8.504;2023-08-07T01:17:02;13.10;99.90
13436;DHT22;6790;49.520;8.504;2023-08-07T01:19:36;13.20;99.90
13436;DHT22;6790;49.520;8.504;2023-08-07T01:22:17;13.20;99.90
13436;DHT22;6790;49.520;8.504;2023-08-07T01:24:47;13.10;99.90
13436;DHT22;6790;49.520;8.504;2023-08-07T01:32:46;13.20;99.90
13436;DHT22;6790;49.520;8.504;2023-08-07T01:35:28;13.20;99.90
13436;DHT22;6790;49.520;8.504;2023-08-07T01:37:56;13.20;99.90
13436;DHT22;6790;49.520;8.504;2023-08-07T01:40:22;13.20;99.90
13436;DHT22;6790;49.520;8.504;2023-08-07T01:42:49;13.10;99.90
13436;DHT22;6790;49.520;8.504;2023-08-07T01:45:25;13.20;99.90
13436;DHT22;6790;49.520;8.504;2023-08-07T01:47:52;13.20;99.90
13436;DHT22;6790;49.520;8.504;2023-08-07T01:50:19;13.20;99.90
13436;DHT22;6790;49.520;8.504;2023-08-07T01:52:45;13.20;99.90
13436;DHT22;6790;49.520;8.504;2023-08-07T01:55:15;13.20;99.90
13436;DHT22;6790;49.520;8.504;2023-08-07T01:57:42;13.10;99.90
13436;DHT22;6790;49.520;8.504;2023-08-07T02:00:08;13.20;99.90
13436;DHT22;6790;49.520;8.504;2023-08-07T02:02:37;13.20;99.90
13436;DHT22;6790;49.520;8.504;2023-08-07T02:05:03;13.20;99.90
13436;DHT22;6790;49.520;8.504;2023-08-07T02:07:30;13.20;99.90
13436;DHT22;6790;49.520;8.504;2023-08-07T02:09:57;13.20;99.90
13436;DHT22;6790;49.520;8.504;2023-08-07T02:12:23;13.10;99.90
13436;DHT22;6790;49.520;8.504;2023-08-07T02:14:49;13.10;99.90
13436;DHT22;6790;49.520;8.504;2023-08-07T02:17:15;13.10;99.90
13436;DHT22;6790;49.520;8.504;2023-08-07T02:19:41;13.10;99.90
13436;DHT22;6790;49.520;8.504;2023-08-07T02:22:06;13.10;99.90
13436;DHT22;6790;49.520;8.504;2023-08-07T02:24:32;13.10;99.90
13436;DHT22;6790;49.520;8.504;2023-08-07T02:26:58;13.10;99.90
13436;DHT22;6790;49.520;8.504;2023-08-07T02:29:23;13.10;99.90
13436;DHT22;6790;49.520;8.504;2023-08-07T02:31:49;13.20;99.90
13436;DHT22;6790;49.520;8.504;2023-08-07T02:34:15;13.10;99.90
13436;DHT22;6790;49.520;8.504;2023-08-07T02:36:40;13.10;99.90
13436;DHT22;6790;49.520;8.504;2023-08-07T02:39:06;13.10;99.90
13436;DHT22;6790;49.520;8.504;2023-08-07T02:41:32;13.10;99.90
13436;DHT22;6790;49.520;8.504;2023-08-07T02:43:58;13.10;99.90
13436;DHT22;6790;49.520;8.504;2023-08-07T02:46:23;13.10;99.90
13436;DHT22;6790;49.520;8.504;2023-08-07T02:48:49;13.10;99.90
13436;DHT22;6790;49.520;8.504;2023-08-07T02:51:15;13.10;99.90
13436;DHT22;6790;49.520;8.504;2023-08-07T02:53:40;13.10;99.90
13436;DHT22;6790;49.520;8.504;2023-08-07T02:56:06;13.20;99.90
13436;DHT22;6790;49.520;8.504;2023-08-07T02:58:32;13.20;99.90
13436;DHT22;6790;49.520;8.504;2023-08-07T03:01:05;13.10;99.90
13436;DHT22;6790;49.520;8.504;2023-08-07T03:03:32;13.10;99.90
13436;DHT22;6790;49.520;8.504;2023-08-07T03:05:58;13.10;99.90
13436;DHT22;6790;49.520;8.504;2023-08-07T03:08:23;13.10;99.90
13436;DHT22;6790;49.520;8.504;2023-08-07T03:10:53;13.10;99.90
13436;DHT22;6790;49.520;8.504;2023-08-07T03:13:21;13.10;99.90
13436;DHT22;6790;49.520;8.504;2023-08-07T03:15:47;13.10;99.90
13436;DHT22;6790;49.520;8.504;2023-08-07T03:18:15;13.10;99.90
13436;DHT22;6790;49.520;8.504;2023-08-07T03:20:41;13.10;99.90
13436;DHT22;6790;49.520;8.504;2023-08-07T03:23:09;13.10;99.90
13436;DHT22;6790;49.520;8.504;2023-08-07T03:25:35;13.10;99.90
13436;DHT22;6790;49.520;8.504;2023-08-07T03:28:01;13.10;99.90
13436;DHT22;6790;49.520;8.504;2023-08-07T03:30:26;13.00;99.90
13436;DHT22;6790;49.520;8.504;2023-08-07T03:32:52;13.10;99.90
13436;DHT22;6790;49.520;8.504;2023-08-07T03:35:18;13.10;99.90
13436;DHT22;6790;49.520;8.504;2023-08-07T03:37:43;13.10;99.90
13436;DHT22;6790;49.520;8.504;2023-08-07T03:40:10;13.10;99.90
13436;DHT22;6790;49.520;8.504;2023-08-07T03:42:35;13.10;99.90
13436;DHT22;6790;49.520;8.504;2023-08-07T03:45:01;13.10;99.90
13436;DHT22;6790;49.520;8.504;2023-08-07T03:47:27;13.00;99.90
13436;DHT22;6790;49.520;8.504;2023-08-07T03:49:52;13.00;99.90
13436;DHT22;6790;49.520;8.504;2023-08-07T03:52:18;13.00;99.90
13436;DHT22;6790;49.520;8.504;2023-08-07T03:54:44;13.00;99.90
13436;DHT22;6790;49.520;8.504;2023-08-07T03:57:10;13.00;99.90
13436;DHT22;6790;49.520;8.504;2023-08-07T03:59:36;13.00;99.90
13436;DHT22;6790;49.520;8.504;2023-08-07T04:02:02;13.00;99.90
13436;DHT22;6790;49.520;8.504;2023-08-07T04:04:28;13.00;99.90
13436;DHT22;6790;49.520;8.504;2023-08-07T04:06:54;13.00;99.90
13436;DHT22;6790;49.520;8.504;2023-08-07T04:09:19;13.00;99.90
13436;DHT22;6790;49.520;8.504;2023-08-07T04:11:45;13.00;99.90
13436;DHT22;6790;49.520;8.504;2023-08-07T04:14:11;13.00;99.90
13436;DHT22;6790;49.520;8.504;2023-08-07T04:16:36;13.00;99.90
13436;DHT22;6790;49.520;8.504;2023-08-07T04:19:03;13.00;99.90
13436;DHT22;6790;49.520;8.504;2023-08-07T04:21:30;13.00;99.90
13436;DHT22;6790;49.520;8.504;2023-08-07T04:23:56;13.00;99.90
13436;DHT22;6790;49.520;8.504;2023-08-07T04:26:21;13.00;99.90
13436;DHT22;6790;49.520;8.504;2023-08-07T04:28:47;13.00;99.90
13436;DHT22;6790;49.520;8.504;2023-08-07T04:31:13;13.00;99.90
13436;DHT22;6790;49.520;8.504;2023-08-07T04:33:39;13.00;99.90
13436;DHT22;6790;49.520;8.504;2023-08-07T04:36:05;13.00;99.90
13436;DHT22;6790;49.520;8.504;2023-08-07T04:38:30;13.00;99.90
13436;DHT22;6790;49.520;8.504;2023-08-07T04:40:56;13.00;99.90
13436;DHT22;6790;49.520;8.504;2023-08-07T04:43:22;13.00;99.90
13436;DHT22;6790;49.520;8.504;2023-08-07T04:45:48;13.00;99.90
13436;DHT22;6790;49.520;8.504;2023-08-07T04:48:14;13.10;99.90
13436;DHT22;6790;49.520;8.504;2023-08-07T04:50:40;13.10;99.90
13436;DHT22;6790;49.520;8.504;2023-08-07T04:53:06;13.10;99.90
13436;DHT22;6790;49.520;8.504;2023-08-07T04:55:32;13.00;99.90
13436;DHT22;6790;49.520;8.504;2023-08-07T04:57:58;13.00;99.90
13436;DHT22;6790;49.520;8.504;2023-08-07T05:00:24;13.00;99.90
13436;DHT22;6790;49.520;8.504;2023-08-07T05:02:50;12.90;99.90
13436;DHT22;6790;49.520;8.504;2023-08-07T05:05:17;13.00;99.90
13436;DHT22;6790;49.520;8.504;2023-08-07T05:07:47;12.90;99.90
13436;DHT22;6790;49.520;8.504;2023-08-07T05:10:13;12.90;99.90
13436;DHT22;6790;49.520;8.504;2023-08-07T05:12:39;12.90;99.90
13436;DHT22;6790;49.520;8.504;2023-08-07T05:15:05;12.90;99.90
13436;DHT22;6790;49.520;8.504;2023-08-07T05:17:32;12.90;99.90
13436;DHT22;6790;49.520;8.504;2023-08-07T05:19:57;12.90;99.90
13436;DHT22;6790;49.520;8.504;2023-08-07T05:22:23;12.90;99.90
13436;DHT22;6790;49.520;8.504;2023-08-07T05:24:49;12.90;99.90
13436;DHT22;6790;49.520;8.504;2023-08-07T05:27:15;13.00;99.90
13436;DHT22;6790;49.520;8.504;2023-08-07T05:29:41;13.00;99.90
13436;DHT22;6790;49.520;8.504;2023-08-07T05:32:13;13.10;99.90
13436;DHT22;6790;49.520;8.504;2023-08-07T05:34:40;13.10;99.90
13436;DHT22;6790;49.520;8.504;2023-08-07T05:37:06;13.20;99.90
13436;DHT22;6790;49.520;8.504;2023-08-07T05:39:32;13.20;99.90
13436;DHT22;6790;49.520;8.504;2023-08-07T05:41:58;13.20;99.90
13436;DHT22;6790;49.520;8.504;2023-08-07T05:44:24;13.30;99.90
13436;DHT22;6790;49.520;8.504;2023-08-07T05:46:50;13.30;99.90
13436;DHT22;6790;49.520;8.504;2023-08-07T05:49:16;13.30;99.90
13436;DHT22;6790;49.520;8.504;2023-08-07T05:51:41;13.40;99.90
13436;DHT22;6790;49.520;8.504;2023-08-07T05:54:07;13.40;99.90
13436;DHT22;6790;49.520;8.504;2023-08-07T05:56:33;13.30;99.90
13436;DHT22;6790;49.520;8.504;2023-08-07T05:58:59;13.40;99.90
13436;DHT22;6790;49.520;8.504;2023-08-07T06:01:24;13.30;99.90
13436;DHT22;6790;49.520;8.504;2023-08-07T06:03:56;13.30;99.90
13436;DHT22;6790;49.520;8.504;2023-08-07T06:06:22;13.40;99.90
13436;DHT22;6790;49.520;8.504;2023-08-07T06:08:48;13.40;99.90
13436;DHT22;6790;49.520;8.504;2023-08-07T06:11:14;13.40;99.90
13436;DHT22;6790;49.520;8.504;2023-08-07T06:13:40;13.40;99.90
13436;DHT22;6790;49.520;8.504;2023-08-07T06:16:06;13.50;99.90
13436;DHT22;6790;49.520;8.504;2023-08-07T06:18:32;13.50;99.90
13436;DHT22;6790;49.520;8.504;2023-08-07T06:20:59;13.50;99.90
13436;DHT22;6790;49.520;8.504;2023-08-07T06:23:25;13.50;99.90
13436;DHT22;6790;49.520;8.504;2023-08-07T06:25:50;13.50;99.90
13436;DHT22;6790;49.520;8.504;2023-08-07T06:28:16;13.50;99.90
13436;DHT22;6790;49.520;8.504;2023-08-07T06:30:42;13.50;99.90
13436;DHT22;6790;49.520;8.504;2023-08-07T06:33:07;13.50;99.90
13436;DHT22;6790;49.520;8.504;2023-08-07T06:35:39;13.50;99.90
13436;DHT22;6790;49.520;8.504;2023-08-07T06:38:05;13.40;99.90
13436;DHT22;6790;49.520;8.504;2023-08-07T06:40:31;13.40;99.90
13436;DHT22;6790;49.520;8.504;2023-08-07T06:42:57;13.40;99.90
13436;DHT22;6790;49.520;8.504;2023-08-07T06:45:22;13.40;99.90
13436;DHT22;6790;49.520;8.504;2023-08-07T06:47:48;13.50;99.90
13436;DHT22;6790;49.520;8.504;2023-08-07T06:50:14;13.50;99.90
13436;DHT22;6790;49.520;8.504;2023-08-07T06:52:39;13.40;99.90
13436;DHT22;6790;49.520;8.504;2023-08-07T06:55:06;13.40;99.90
13436;DHT22;6790;49.520;8.504;2023-08-07T06:57:32;13.50;99.90
13436;DHT22;6790;49.520;8.504;2023-08-07T06:59:57;13.50;99.90
13436;DHT22;6790;49.520;8.504;2023-08-07T07:02:23;13.50;99.90
13436;DHT22;6790;49.520;8.504;2023-08-07T07:04:49;13.50;99.90
13436;DHT22;6790;49.520;8.504;2023-08-07T07:07:14;13.50;99.90
13436;DHT22;6790;49.520;8.504;2023-08-07T07:09:41;13.50;99.90
13436;DHT22;6790;49.520;8.504;2023-08-07T07:12:07;13.50;99.90
13436;DHT22;6790;49.520;8.504;2023-08-07T07:14:33;13.60;99.90
13436;DHT22;6790;49.520;8.504;2023-08-07T07:16:59;13.60;99.90
13436;DHT22;6790;49.520;8.504;2023-08-07T07:19:26;13.60;99.90
13436;DHT22;6790;49.520;8.504;2023-08-07T07:21:51;13.50;99.90
13436;DHT22;6790;49.520;8.504;2023-08-07T07:24:18;13.50;99.90
13436;DHT22;6790;49.520;8.504;2023-08-07T07:26:44;13.60;99.90
13436;DHT22;6790;49.520;8.504;2023-08-07T07:29:10;13.50;99.90
13436;DHT22;6790;49.520;8.504;2023-08-07T07:31:35;13.50;99.90
13436;DHT22;6790;49.520;8.504;2023-08-07T07:34:02;13.60;99.90
13436;DHT22;6790;49.520;8.504;2023-08-07T07:36:28;13.50;99.90
13436;DHT22;6790;49.520;8.504;2023-08-07T07:38:54;13.50;99.90
13436;DHT22;6790;49.520;8.504;2023-08-07T07:41:19;13.50;99.90
13436;DHT22;6790;49.520;8.504;2023-08-07T07:43:47;13.50;99.90
13436;DHT22;6790;49.520;8.504;2023-08-07T07:46:12;13.40;99.90
13436;DHT22;6790;49.520;8.504;2023-08-07T07:48:38;13.40;99.90
13436;DHT22;6790;49.520;8.504;2023-08-07T07:51:04;13.30;99.90
13436;DHT22;6790;49.520;8.504;2023-08-07T07:53:30;13.30;99.90
13436;DHT22;6790;49.520;8.504;2023-08-07T07:55:56;13.20;99.90
13436;DHT22;6790;49.520;8.504;2023-08-07T07:58:23;13.30;99.90
13436;DHT22;6790;49.520;8.504;2023-08-07T08:00:49;13.20;99.90
13436;DHT22;6790;49.520;8.504;2023-08-07T08:03:14;13.30;99.90
13436;DHT22;6790;49.520;8.504;2023-08-07T08:05:40;13.30;99.90
13436;DHT22;6790;49.520;8.504;2023-08-07T08:08:06;13.30;99.90
13436;DHT22;6790;49.520;8.504;2023-08-07T08:10:33;13.30;99.90
13436;DHT22;6790;49.520;8.504;2023-08-07T08:12:59;13.40;99.90
13436;DHT22;6790;49.520;8.504;2023-08-07T08:15:25;13.40;99.90
13436;DHT22;6790;49.520;8.504;2023-08-07T08:17:51;13.50;99.90
13436;DHT22;6790;49.520;8.504;2023-08-07T08:20:17;13.50;99.90
13436;DHT22;6790;49.520;8.504;2023-08-07T08:22:46;13.50;99.90
13436;DHT22;6790;49.520;8.504;2023-08-07T08:25:12;13.50;99.90
13436;DHT22;6790;49.520;8.504;2023-08-07T08:27:38;13.50;99.90
13436;DHT22;6790;49.520;8.504;2023-08-07T08:30:05;13.50;99.90
13436;DHT22;6790;49.520;8.504;2023-08-07T08:32:31;13.50;99.90
13436;DHT22;6790;49.520;8.504;2023-08-07T08:34:57;13.60;99.90
13436;DHT22;6790;49.520;8.504;2023-08-07T08:37:22;13.60;99.90
13436;DHT22;6790;49.520;8.504;2023-08-07T08:39:48;13.60;99.90
13436;DHT22;6790;49.520;8.504;2023-08-07T08:42:14;13.70;99.90
13436;DHT22;6790;49.520;8.504;2023-08-07T08:44:51;13.70;99.90
13436;DHT22;6790;49.520;8.504;2023-08-07T08:47:18;13.70;99.90
13436;DHT22;6790;49.520;8.504;2023-08-07T08:49:50;13.70;99.90
13436;DHT22;6790;49.520;8.504;2023-08-07T08:52:17;13.70;99.90
13436;DHT22;6790;49.520;8.504;2023-08-07T08:54:43;13.70;99.90
13436;DHT22;6790;49.520;8.504;2023-08-07T08:57:11;13.70;99.90
13436;DHT22;6790;49.520;8.504;2023-08-07T08:59:37;13.70;99.90
13436;DHT22;6790;49.520;8.504;2023-08-07T09:02:03;13.70;99.90
13436;DHT22;6790;49.520;8.504;2023-08-07T09:04:30;13.80;99.90
13436;DHT22;6790;49.520;8.504;2023-08-07T09:06:55;13.80;99.90
13436;DHT22;6790;49.520;8.504;2023-08-07T09:09:22;13.90;99.90
13436;DHT22;6790;49.520;8.504;2023-08-07T09:11:50;14.00;99.90
13436;DHT22;6790;49.520;8.504;2023-08-07T09:14:18;14.10;99.90
13436;DHT22;6790;49.520;8.504;2023-08-07T09:16:48;14.10;99.90
13436;DHT22;6790;49.520;8.504;2023-08-07T09:19:14;14.10;99.90
13436;DHT22;6790;49.520;8.504;2023-08-07T09:21:40;14.00;99.90
13436;DHT22;6790;49.520;8.504;2023-08-07T09:24:06;14.00;99.90
13436;DHT22;6790;49.520;8.504;2023-08-07T09:26:33;13.90;99.90
13436;DHT22;6790;49.520;8.504;2023-08-07T09:28:59;13.80;99.90
13436;DHT22;6790;49.520;8.504;2023-08-07T09:31:26;13.70;99.90
13436;DHT22;6790;49.520;8.504;2023-08-07T09:33:52;13.60;99.90
13436;DHT22;6790;49.520;8.504;2023-08-07T09:36:18;13.60;99.90
13436;DHT22;6790;49.520;8.504;2023-08-07T09:38:49;13.50;99.90
13436;DHT22;6790;49.520;8.504;2023-08-07T09:41:18;13.60;99.90
13436;DHT22;6790;49.520;8.504;2023-08-07T09:43:45;13.50;99.90
13436;DHT22;6790;49.520;8.504;2023-08-07T09:46:10;13.60;99.90
13436;DHT22;6790;49.520;8.504;2023-08-07T09:48:43;13.50;99.90
13436;DHT22;6790;49.520;8.504;2023-08-07T09:51:10;13.50;99.90
13436;DHT22;6790;49.520;8.504;2023-08-07T09:53:36;13.60;99.90
13436;DHT22;6790;49.520;8.504;2023-08-07T09:56:02;13.60;99.90
13436;DHT22;6790;49.520;8.504;2023-08-07T09:58:29;13.60;99.90
13436;DHT22;6790;49.520;8.504;2023-08-07T10:00:55;13.60;99.90
13436;DHT22;6790;49.520;8.504;2023-08-07T10:03:27;13.60;99.90
13436;DHT22;6790;49.520;8.504;2023-08-07T10:05:54;13.70;99.90
13436;DHT22;6790;49.520;8.504;2023-08-07T10:08:21;13.80;99.90
13436;DHT22;6790;49.520;8.504;2023-08-07T10:10:47;13.80;99.90
13436;DHT22;6790;49.520;8.504;2023-08-07T10:13:13;13.80;99.90
13436;DHT22;6790;49.520;8.504;2023-08-07T10:15:40;13.70;99.90
13436;DHT22;6790;49.520;8.504;2023-08-07T10:18:08;13.70;99.90
13436;DHT22;6790;49.520;8.504;2023-08-07T10:20:34;13.70;99.90
13436;DHT22;6790;49.520;8.504;2023-08-07T10:23:08;13.70;99.90
13436;DHT22;6790;49.520;8.504;2023-08-07T10:25:39;13.70;99.90
13436;DHT22;6790;49.520;8.504;2023-08-07T10:28:09;13.90;99.90
13436;DHT22;6790;49.520;8.504;2023-08-07T10:30:38;13.80;99.90
13436;DHT22;6790;49.520;8.504;2023-08-07T10:33:06;13.80;99.90
13436;DHT22;6790;49.520;8.504;2023-08-07T10:35:33;13.80;99.90
13436;DHT22;6790;49.520;8.504;2023-08-07T10:38:09;13.80;99.90
13436;DHT22;6790;49.520;8.504;2023-08-07T10:41:37;13.80;99.90
13436;DHT22;6790;49.520;8.504;2023-08-07T10:43:47;13.80;99.90
13436;DHT22;6790;49.520;8.504;2023-08-07T10:46:15;13.90;99.90
13436;DHT22;6790;49.520;8.504;2023-08-07T10:48:46;13.90;99.90
13436;DHT22;6790;49.520;8.504;2023-08-07T10:51:17;13.80;99.90
13436;DHT22;6790;49.520;8.504;2023-08-07T10:53:45;13.70;99.90
13436;DHT22;6790;49.520;8.504;2023-08-07T10:56:18;13.70;99.90
13436;DHT22;6790;49.520;8.504;2023-08-07T10:58:52;13.80;99.90
13436;DHT22;6790;49.520;8.504;2023-08-07T11:04:00;13.80;99.90
13436;DHT22;6790;49.520;8.504;2023-08-07T11:06:30;13.70;99.90
13436;DHT22;6790;49.520;8.504;2023-08-07T11:08:57;13.60;99.90
13436;DHT22;6790;49.520;8.504;2023-08-07T11:14:06;13.60;99.90
13436;DHT22;6790;49.520;8.504;2023-08-07T11:16:35;13.70;99.90
13436;DHT22;6790;49.520;8.504;2023-08-07T11:19:02;13.70;99.90
13436;DHT22;6790;49.520;8.504;2023-08-07T11:21:30;13.80;99.90
13436;DHT22;6790;49.520;8.504;2023-08-07T11:23:56;13.70;99.90
13436;DHT22;6790;49.520;8.504;2023-08-07T11:26:22;13.90;99.90
13436;DHT22;6790;49.520;8.504;2023-08-07T11:28:50;14.00;99.90
13436;DHT22;6790;49.520;8.504;2023-08-07T11:31:20;14.20;99.90
13436;DHT22;6790;49.520;8.504;2023-08-07T11:33:46;14.40;99.90
13436;DHT22;6790;49.520;8.504;2023-08-07T11:36:14;14.50;99.90
13436;DHT22;6790;49.520;8.504;2023-08-07T11:38:41;14.30;99.90
13436;DHT22;6790;49.520;8.504;2023-08-07T11:41:15;14.30;99.90
13436;DHT22;6790;49.520;8.504;2023-08-07T11:43:42;14.30;99.90
13436;DHT22;6790;49.520;8.504;2023-08-07T11:46:10;14.30;99.90
13436;DHT22;6790;49.520;8.504;2023-08-07T11:48:39;14.30;99.90
13436;DHT22;6790;49.520;8.504;2023-08-07T11:51:06;14.40;99.90
13436;DHT22;6790;49.520;8.504;2023-08-07T11:53:33;14.40;99.90
13436;DHT22;6790;49.520;8.504;2023-08-07T11:56:08;14.40;99.90
13436;DHT22;6790;49.520;8.504;2023-08-07T11:58:36;14.50;99.90
13436;DHT22;6790;49.520;8.504;2023-08-07T12:01:12;14.40;99.90
13436;DHT22;6790;49.520;8.504;2023-08-07T12:03:42;14.30;99.90
13436;DHT22;6790;49.520;8.504;2023-08-07T12:06:16;14.30;99.90
13436;DHT22;6790;49.520;8.504;2023-08-07T12:08:42;14.30;99.90
13436;DHT22;6790;49.520;8.504;2023-08-07T12:11:12;14.20;99.90
13436;DHT22;6790;49.520;8.504;2023-08-07T12:13:43;14.30;99.90
13436;DHT22;6790;49.520;8.504;2023-08-07T12:16:10;14.40;99.90
13436;DHT22;6790;49.520;8.504;2023-08-07T12:18:43;14.30;99.90
13436;DHT22;6790;49.520;8.504;2023-08-07T12:21:22;14.40;99.90
13436;DHT22;6790;49.520;8.504;2023-08-07T12:23:51;14.50;99.90
13436;DHT22;6790;49.520;8.504;2023-08-07T12:26:20;14.60;99.90
13436;DHT22;6790;49.520;8.504;2023-08-07T12:28:46;14.50;99.90
13436;DHT22;6790;49.520;8.504;2023-08-07T12:31:12;14.50;99.90
13436;DHT22;6790;49.520;8.504;2023-08-07T12:33:37;14.50;99.90
13436;DHT22;6790;49.520;8.504;2023-08-07T12:36:03;14.50;99.90
13436;DHT22;6790;49.520;8.504;2023-08-07T12:38:29;14.60;99.90
13436;DHT22;6790;49.520;8.504;2023-08-07T12:40:55;14.60;99.90
13436;DHT22;6790;49.520;8.504;2023-08-07T12:43:21;14.60;99.90
13436;DHT22;6790;49.520;8.504;2023-08-07T12:45:47;14.60;99.90
13436;DHT22;6790;49.520;8.504;2023-08-07T12:48:13;14.80;99.90
13436;DHT22;6790;49.520;8.504;2023-08-07T12:50:39;14.70;99.90
13436;DHT22;6790;49.520;8.504;2023-08-07T12:53:06;14.70;99.90
13436;DHT22;6790;49.520;8.504;2023-08-07T12:55:32;14.70;99.90
13436;DHT22;6790;49.520;8.504;2023-08-07T12:57:58;14.80;99.90
13436;DHT22;6790;49.520;8.504;2023-08-07T13:00:24;14.80;99.90
13436;DHT22;6790;49.520;8.504;2023-08-07T13:02:50;14.80;99.90
13436;DHT22;6790;49.520;8.504;2023-08-07T13:05:17;14.80;99.90
13436;DHT22;6790;49.520;8.504;2023-08-07T13:07:46;14.80;99.90
13436;DHT22;6790;49.520;8.504;2023-08-07T13:10:14;14.80;99.90
13436;DHT22;6790;49.520;8.504;2023-08-07T13:12:42;14.80;99.90
13436;DHT22;6790;49.520;8.504;2023-08-07T13:15:12;15.00;99.90
13436;DHT22;6790;49.520;8.504;2023-08-07T13:17:39;15.20;99.90
13436;DHT22;6790;49.520;8.504;2023-08-07T13:20:06;15.20;99.90
13436;DHT22;6790;49.520;8.504;2023-08-07T13:22:34;15.40;99.90
13436;DHT22;6790;49.520;8.504;2023-08-07T13:25:04;15.90;99.90
13436;DHT22;6790;49.520;8.504;2023-08-07T13:27:30;16.20;99.90
13436;DHT22;6790;49.520;8.504;2023-08-07T13:29:57;16.30;99.90
13436;DHT22;6790;49.520;8.504;2023-08-07T13:32:22;16.40;99.90
13436;DHT22;6790;49.520;8.504;2023-08-07T13:34:48;16.40;99.90
13436;DHT22;6790;49.520;8.504;2023-08-07T13:37:14;16.60;99.90
13436;DHT22;6790;49.520;8.504;2023-08-07T13:39:40;16.50;99.90
13436;DHT22;6790;49.520;8.504;2023-08-07T13:42:06;16.40;99.90
13436;DHT22;6790;49.520;8.504;2023-08-07T13:44:33;16.50;99.90
13436;DHT22;6790;49.520;8.504;2023-08-07T13:46:58;16.90;99.90
13436;DHT22;6790;49.520;8.504;2023-08-07T13:49:24;17.20;99.90
13436;DHT22;6790;49.520;8.504;2023-08-07T13:51:50;17.50;99.90
13436;DHT22;6790;49.520;8.504;2023-08-07T13:54:16;17.40;99.90
13436;DHT22;6790;49.520;8.504;2023-08-07T13:56:42;17.50;99.90
13436;DHT22;6790;49.520;8.504;2023-08-07T13:59:08;17.70;99.90
13436;DHT22;6790;49.520;8.504;2023-08-07T14:01:35;17.90;99.90
13436;DHT22;6790;49.520;8.504;2023-08-07T14:04:01;17.90;99.90
13436;DHT22;6790;49.520;8.504;2023-08-07T14:06:27;17.80;99.90
13436;DHT22;6790;49.520;8.504;2023-08-07T14:08:53;17.60;99.90
13436;DHT22;6790;49.520;8.504;2023-08-07T14:11:20;17.50;99.90
13436;DHT22;6790;49.520;8.504;2023-08-07T14:13:46;17.50;99.90
13436;DHT22;6790;49.520;8.504;2023-08-07T14:16:12;17.40;99.90
13436;DHT22;6790;49.520;8.504;2023-08-07T14:18:38;17.40;99.90
13436;DHT22;6790;49.520;8.504;2023-08-07T14:21:04;17.30;99.90
13436;DHT22;6790;49.520;8.504;2023-08-07T14:23:31;17.40;99.90
13436;DHT22;6790;49.520;8.504;2023-08-07T14:25:57;17.30;99.90
13436;DHT22;6790;49.520;8.504;2023-08-07T14:28:22;17.30;99.90
13436;DHT22;6790;49.520;8.504;2023-08-07T14:30:48;17.20;99.90
13436;DHT22;6790;49.520;8.504;2023-08-07T14:33:14;17.20;99.90
13436;DHT22;6790;49.520;8.504;2023-08-07T14:35:40;17.30;99.90
13436;DHT22;6790;49.520;8.504;2023-08-07T14:38:06;17.50;99.90
13436;DHT22;6790;49.520;8.504;2023-08-07T14:40:32;17.60;99.90
13436;DHT22;6790;49.520;8.504;2023-08-07T14:42:57;17.90;99.90
13436;DHT22;6790;49.520;8.504;2023-08-07T14:45:23;18.40;99.90
13436;DHT22;6790;49.520;8.504;2023-08-07T14:47:50;18.90;99.90
13436;DHT22;6790;49.520;8.504;2023-08-07T14:50:15;18.80;99.90
13436;DHT22;6790;49.520;8.504;2023-08-07T14:52:42;18.60;99.90
13436;DHT22;6790;49.520;8.504;2023-08-07T14:55:08;18.50;99.90
13436;DHT22;6790;49.520;8.504;2023-08-07T14:57:34;18.20;99.90
13436;DHT22;6790;49.520;8.504;2023-08-07T15:00:00;18.00;99.90
13436;DHT22;6790;49.520;8.504;2023-08-07T15:02:25;17.60;99.90
13436;DHT22;6790;49.520;8.504;2023-08-07T15:04:51;17.50;99.90
13436;DHT22;6790;49.520;8.504;2023-08-07T15:07:17;17.30;99.90
13436;DHT22;6790;49.520;8.504;2023-08-07T15:09:43;17.50;99.90
13436;DHT22;6790;49.520;8.504;2023-08-07T15:12:09;17.90;99.90
13436;DHT22;6790;49.520;8.504;2023-08-07T15:14:35;18.20;99.90
13436;DHT22;6790;49.520;8.504;2023-08-07T15:17:01;18.60;99.90
13436;DHT22;6790;49.520;8.504;2023-08-07T15:19:27;18.60;99.90
13436;DHT22;6790;49.520;8.504;2023-08-07T15:21:53;18.50;99.90
13436;DHT22;6790;49.520;8.504;2023-08-07T15:24:19;18.50;99.90
13436;DHT22;6790;49.520;8.504;2023-08-07T15:26:45;18.80;99.90
13436;DHT22;6790;49.520;8.504;2023-08-07T15:29:11;18.90;99.90
13436;DHT22;6790;49.520;8.504;2023-08-07T15:31:37;19.00;99.90
13436;DHT22;6790;49.520;8.504;2023-08-07T15:34:02;18.90;99.90
13436;DHT22;6790;49.520;8.504;2023-08-07T15:36:28;18.50;99.90
13436;DHT22;6790;49.520;8.504;2023-08-07T15:38:54;18.30;99.90
13436;DHT22;6790;49.520;8.504;2023-08-07T15:41:21;18.10;99.90
13436;DHT22;6790;49.520;8.504;2023-08-07T15:43:47;18.40;99.90
13436;DHT22;6790;49.520;8.504;2023-08-07T15:46:15;18.30;99.90
13436;DHT22;6790;49.520;8.504;2023-08-07T15:48:42;18.20;99.90
13436;DHT22;6790;49.520;8.504;2023-08-07T15:51:08;18.00;99.90
13436;DHT22;6790;49.520;8.504;2023-08-07T15:53:34;17.90;99.90